createdAt,value
2018-09-11T00:00:34.458Z,17.00
2018-09-11T00:03:05.284Z,17.00
2018-09-11T00:05:36.767Z,17.00
2018-09-11T00:08:09.145Z,17.00
2018-09-11T00:10:40.640Z,17.00
2018-09-11T00:13:18.045Z,17.00
2018-09-11T00:15:48.746Z,17.00
2018-09-11T00:18:19.599Z,17.00
2018-09-11T00:20:51.688Z,17.00
2018-09-11T00:23:22.740Z,16.90
2018-09-11T00:25:54.198Z,16.90
2018-09-11T00:28:25.217Z,16.90
2018-09-11T00:30:56.167Z,16.80
2018-09-11T00:33:33.321Z,16.90
2018-09-11T00:36:04.045Z,16.80
2018-09-11T00:38:34.470Z,16.80
2018-09-11T00:41:05.555Z,16.80
2018-09-11T00:43:37.184Z,16.70
2018-09-11T00:46:08.212Z,16.70
2018-09-11T00:48:39.187Z,16.70
2018-09-11T00:51:10.962Z,16.60
2018-09-11T00:53:43.220Z,16.50
2018-09-11T00:56:14.782Z,16.50
2018-09-11T00:58:46.128Z,16.50
2018-09-11T01:01:18.293Z,16.50
2018-09-11T01:03:49.538Z,16.50
2018-09-11T01:06:19.856Z,16.40
2018-09-11T01:08:51.366Z,16.50
2018-09-11T01:11:22.437Z,16.50
2018-09-11T01:13:53.982Z,16.50
2018-09-11T01:16:24.379Z,16.50
2018-09-11T01:18:56.761Z,16.40
2018-09-11T01:21:27.696Z,16.40
2018-09-11T01:24:00.718Z,16.40
2018-09-11T01:26:32.411Z,16.40
2018-09-11T01:29:03.499Z,16.40
2018-09-11T01:31:36.395Z,16.30
2018-09-11T01:34:12.779Z,16.30
2018-09-11T01:36:44.388Z,16.20
2018-09-11T01:39:15.220Z,16.20
2018-09-11T01:41:47.316Z,16.20
2018-09-11T01:44:19.558Z,16.10
2018-09-11T01:46:51.017Z,16.10
2018-09-11T01:49:22.759Z,16.10
2018-09-11T01:51:55.136Z,16.00
2018-09-11T01:54:25.708Z,16.00
2018-09-11T01:56:57.379Z,16.00
2018-09-11T01:59:28.305Z,15.90
2018-09-11T02:02:00.557Z,15.80
2018-09-11T02:04:31.581Z,15.70
2018-09-11T02:07:02.969Z,15.70
2018-09-11T02:09:34.218Z,15.70
2018-09-11T02:12:07.259Z,15.70
2018-09-11T02:14:38.016Z,15.70
2018-09-11T02:17:08.560Z,15.60
2018-09-11T02:19:40.932Z,15.60
2018-09-11T02:22:12.098Z,15.60
2018-09-11T02:24:43.897Z,15.60
2018-09-11T02:27:15.658Z,15.70
2018-09-11T02:29:46.293Z,15.60
2018-09-11T02:32:17.785Z,15.60
2018-09-11T02:35:07.795Z,15.60
2018-09-11T02:37:38.312Z,15.60
2018-09-11T02:40:09.522Z,15.60
2018-09-11T02:42:40.946Z,15.60
2018-09-11T02:45:12.802Z,15.60
2018-09-11T02:47:43.455Z,15.50
2018-09-11T02:50:15.791Z,15.50
2018-09-11T02:52:46.981Z,15.50
2018-09-11T02:55:19.922Z,15.50
2018-09-11T02:57:51.298Z,15.50
2018-09-11T03:00:23.056Z,15.50
2018-09-11T03:02:54.414Z,15.50
2018-09-11T03:05:25.539Z,15.50
2018-09-11T03:07:57.101Z,15.50
2018-09-11T03:10:28.597Z,15.40
2018-09-11T03:12:59.943Z,15.40
2018-09-11T03:15:33.756Z,15.40
2018-09-11T03:18:05.115Z,15.40
2018-09-11T03:20:35.974Z,15.40
2018-09-11T03:23:06.984Z,15.40
2018-09-11T03:25:37.017Z,15.30
2018-09-11T03:28:15.534Z,15.30
2018-09-11T03:30:46.549Z,15.20
2018-09-11T03:33:17.433Z,15.10
2018-09-11T03:35:48.875Z,15.00
2018-09-11T03:38:20.109Z,15.00
2018-09-11T03:40:54.976Z,14.90
2018-09-11T03:43:33.274Z,14.90
2018-09-11T03:46:13.629Z,14.70
2018-09-11T03:48:44.418Z,14.70
2018-09-11T03:51:17.601Z,14.70
2018-09-11T03:53:49.206Z,14.70
2018-09-11T03:56:19.166Z,14.60
2018-09-11T03:58:56.425Z,14.60
2018-09-11T04:01:38.562Z,14.70
2018-09-11T04:04:14.493Z,14.70
2018-09-11T04:06:46.129Z,14.60
2018-09-11T04:09:17.003Z,14.60
2018-09-11T04:14:24.362Z,14.50
2018-09-11T04:17:01.816Z,14.50
2018-09-11T04:19:39.684Z,14.50
2018-09-11T04:22:15.292Z,14.60
2018-09-11T04:24:46.000Z,14.60
2018-09-11T04:27:17.800Z,14.70
2018-09-11T04:29:48.249Z,14.70
2018-09-11T04:32:19.451Z,14.70
2018-09-11T04:34:53.194Z,14.70
2018-09-11T04:37:24.917Z,14.70
2018-09-11T04:39:57.764Z,14.80
2018-09-11T04:42:35.632Z,14.70
2018-09-11T04:45:06.369Z,14.70
2018-09-11T04:47:37.785Z,14.70
2018-09-11T04:50:09.463Z,14.80
2018-09-11T04:52:40.417Z,14.80
2018-09-11T04:55:12.561Z,14.80
2018-09-11T04:57:46.665Z,14.80
2018-09-11T05:00:18.226Z,14.80
2018-09-11T05:02:48.643Z,14.80
2018-09-11T05:05:20.305Z,14.80
2018-09-11T05:07:52.073Z,14.90
2018-09-11T05:10:23.250Z,14.90
2018-09-11T05:12:54.829Z,14.90
2018-09-11T05:15:26.618Z,14.90
2018-09-11T05:17:59.029Z,14.90
2018-09-11T05:20:29.542Z,14.90
2018-09-11T05:23:01.638Z,14.90
2018-09-11T05:25:31.850Z,15.00
2018-09-11T05:28:04.322Z,15.00
2018-09-11T05:30:35.298Z,15.00
2018-09-11T05:33:07.845Z,15.00
2018-09-11T05:35:45.138Z,15.00
2018-09-11T05:38:17.346Z,15.00
2018-09-11T05:40:51.787Z,15.10
2018-09-11T05:43:22.612Z,15.10
2018-09-11T05:45:52.735Z,15.10
2018-09-11T05:48:27.492Z,15.10
2018-09-11T05:50:57.635Z,15.20
2018-09-11T05:53:29.164Z,15.10
2018-09-11T05:56:00.783Z,15.10
2018-09-11T05:58:32.202Z,15.20
2018-09-11T06:01:03.643Z,15.30
2018-09-11T06:03:33.980Z,15.40
2018-09-11T06:06:04.985Z,15.40
2018-09-11T06:08:35.156Z,15.50
2018-09-11T06:11:07.250Z,15.60
2018-09-11T06:13:37.607Z,15.60
2018-09-11T06:16:08.651Z,15.70
2018-09-11T06:18:42.890Z,15.80
2018-09-11T06:21:15.610Z,15.90
2018-09-11T06:23:47.443Z,15.90
2018-09-11T06:26:24.877Z,16.00
2018-09-11T06:28:59.915Z,16.00
2018-09-11T06:31:36.614Z,16.00
2018-09-11T06:34:08.728Z,16.10
2018-09-11T06:36:38.871Z,16.10
2018-09-11T06:39:11.837Z,16.20
2018-09-11T06:41:42.360Z,16.20
2018-09-11T06:44:14.599Z,16.20
2018-09-11T06:46:45.396Z,16.30
2018-09-11T06:49:17.206Z,16.40
2018-09-11T06:51:47.124Z,16.40
2018-09-11T06:54:18.291Z,16.40
2018-09-11T06:56:49.260Z,16.50
2018-09-11T06:59:20.206Z,16.60
2018-09-11T07:01:51.375Z,16.60
2018-09-11T07:04:22.093Z,16.70
2018-09-11T07:06:53.285Z,16.70
2018-09-11T07:09:24.748Z,16.80
2018-09-11T07:11:55.658Z,16.70
2018-09-11T07:14:26.574Z,16.80
2018-09-11T07:16:59.234Z,16.80
2018-09-11T07:19:33.105Z,16.90
2018-09-11T07:22:03.840Z,16.90
2018-09-11T07:24:35.006Z,16.90
2018-09-11T07:27:05.532Z,16.90
2018-09-11T07:29:36.595Z,16.80
2018-09-11T07:32:08.704Z,16.80
2018-09-11T07:34:39.930Z,16.80
2018-09-11T07:37:10.627Z,16.80
2018-09-11T07:39:43.168Z,16.90
2018-09-11T07:42:19.637Z,17.30
2018-09-11T07:44:53.140Z,17.70
2018-09-11T07:47:29.270Z,18.00
2018-09-11T07:49:58.913Z,18.20
2018-09-11T07:52:32.161Z,18.30
2018-09-11T07:55:04.548Z,18.40
2018-09-11T07:57:34.713Z,18.50
2018-09-11T08:00:08.121Z,18.50
2018-09-11T08:02:40.373Z,18.60
2018-09-11T08:05:11.853Z,18.60
2018-09-11T08:07:42.304Z,18.70
2018-09-11T08:10:14.176Z,18.80
2018-09-11T08:12:49.292Z,19.00
2018-09-11T08:15:24.998Z,19.10
2018-09-11T08:17:55.789Z,19.30
2018-09-11T08:20:27.148Z,19.30
2018-09-11T08:22:58.433Z,19.30
2018-09-11T08:25:29.773Z,19.30
2018-09-11T08:28:04.640Z,19.30
2018-09-11T08:30:35.073Z,19.20
2018-09-11T08:33:08.530Z,19.30
2018-09-11T08:35:42.096Z,19.20
2018-09-11T08:40:51.673Z,19.10
2018-09-11T08:43:21.945Z,19.10
2018-09-11T08:45:52.647Z,19.30
2018-09-11T08:48:22.317Z,19.50
2018-09-11T08:50:57.244Z,19.90
2018-09-11T08:53:32.902Z,20.20
2018-09-11T08:56:05.340Z,20.50
2018-09-11T08:58:37.959Z,20.70
2018-09-11T09:01:09.142Z,20.90
2018-09-11T09:03:41.920Z,21.00
2018-09-11T09:06:16.465Z,21.10
2018-09-11T09:08:51.021Z,21.20
2018-09-11T09:11:22.978Z,21.30
2018-09-11T09:13:57.119Z,21.30
2018-09-11T09:16:28.518Z,21.30
2018-09-11T09:19:00.770Z,21.20
2018-09-11T09:21:31.462Z,21.20
2018-09-11T09:24:02.407Z,21.20
2018-09-11T09:26:33.740Z,20.90
2018-09-11T09:29:04.621Z,20.90
2018-09-11T09:31:35.982Z,21.00
2018-09-11T09:34:06.846Z,21.10
2018-09-11T09:36:38.684Z,21.00
2018-09-11T09:39:14.962Z,21.00
2018-09-11T09:41:48.191Z,21.10
2018-09-11T09:44:20.399Z,21.10
2018-09-11T09:46:51.104Z,21.20
2018-09-11T09:49:22.828Z,21.40
2018-09-11T09:51:53.281Z,21.50
2018-09-11T09:54:24.156Z,21.60
2018-09-11T09:56:58.170Z,21.70
2018-09-11T09:59:29.012Z,21.70
2018-09-11T10:02:05.193Z,21.80
2018-09-11T10:04:37.993Z,21.90
2018-09-11T10:07:08.653Z,22.00
2018-09-11T10:09:40.099Z,22.10
2018-09-11T10:12:10.737Z,22.20
2018-09-11T10:14:42.094Z,22.30
2018-09-11T10:17:13.509Z,22.30
2018-09-11T10:19:48.247Z,22.40
2018-09-11T10:22:19.867Z,22.30
2018-09-11T10:27:44.994Z,22.00
2018-09-11T10:30:32.864Z,21.90
2018-09-11T10:33:08.071Z,22.00
2018-09-11T10:35:51.266Z,22.00
2018-09-11T10:38:21.081Z,22.20
2018-09-11T10:40:51.890Z,22.40
2018-09-11T10:43:24.782Z,22.50
2018-09-11T10:45:55.469Z,22.70
2018-09-11T10:48:26.374Z,22.80
2018-09-11T10:51:01.993Z,22.90
2018-09-11T10:53:39.640Z,22.90
2018-09-11T10:56:10.613Z,23.00
2018-09-11T10:58:42.264Z,23.10
2018-09-11T11:01:18.433Z,23.00
2018-09-11T11:03:49.891Z,23.10
2018-09-11T11:06:19.736Z,23.20
2018-09-11T11:08:51.062Z,23.40
2018-09-11T11:11:21.461Z,23.60
2018-09-11T11:13:52.897Z,23.60
2018-09-11T11:16:24.952Z,23.80
2018-09-11T11:18:55.632Z,23.90
2018-09-11T11:21:26.730Z,24.00
2018-09-11T11:23:57.665Z,23.90
2018-09-11T11:26:29.390Z,23.80
2018-09-11T11:28:59.803Z,23.70
2018-09-11T11:31:31.224Z,23.70
2018-09-11T11:34:01.643Z,23.70
2018-09-11T11:36:32.672Z,23.90
2018-09-11T11:39:03.160Z,24.00
2018-09-11T11:41:35.033Z,24.10
2018-09-11T11:44:05.071Z,24.20
2018-09-11T11:46:35.414Z,24.30
2018-09-11T11:49:05.765Z,24.50
2018-09-11T11:51:36.424Z,24.50
2018-09-11T11:54:06.506Z,24.50
2018-09-11T11:56:37.950Z,24.60
2018-09-11T11:59:08.794Z,24.60
2018-09-11T12:01:41.609Z,24.60
2018-09-11T12:04:15.096Z,24.70
2018-09-11T12:06:46.002Z,24.70
2018-09-11T12:09:18.126Z,24.60
2018-09-11T12:11:49.961Z,24.60
2018-09-11T12:14:21.562Z,24.50
2018-09-11T12:16:53.613Z,24.30
2018-09-11T12:19:25.721Z,24.20
2018-09-11T12:21:57.156Z,24.10
2018-09-11T12:24:27.918Z,24.10
2018-09-11T12:27:00.225Z,24.10
2018-09-11T12:29:31.605Z,24.10
2018-09-11T12:32:03.844Z,24.20
2018-09-11T12:34:36.906Z,24.20
2018-09-11T12:37:07.917Z,24.20
2018-09-11T12:39:40.084Z,24.40
2018-09-11T12:42:11.103Z,24.70
2018-09-11T12:44:43.188Z,24.90
2018-09-11T12:47:14.298Z,24.90
2018-09-11T12:49:46.264Z,24.50
2018-09-11T12:52:18.102Z,24.30
2018-09-11T12:54:49.170Z,24.20
2018-09-11T12:57:21.347Z,24.20
2018-09-11T12:59:52.083Z,24.30
2018-09-11T13:02:22.847Z,24.70
2018-09-11T13:04:53.308Z,24.90
2018-09-11T13:07:24.355Z,25.00
2018-09-11T13:09:54.236Z,24.90
2018-09-11T13:12:25.286Z,24.90
2018-09-11T13:14:56.066Z,24.70
2018-09-11T13:17:27.874Z,24.80
2018-09-11T13:19:58.421Z,24.90
2018-09-11T13:22:29.014Z,25.20
2018-09-11T13:24:58.771Z,25.30
2018-09-11T13:27:30.676Z,25.20
2018-09-11T13:30:01.402Z,25.20
2018-09-11T13:32:32.118Z,25.40
2018-09-11T13:35:03.451Z,25.50
2018-09-11T13:37:33.444Z,25.70
2018-09-11T13:40:04.268Z,25.70
2018-09-11T13:42:34.383Z,25.50
2018-09-11T13:45:06.422Z,25.30
2018-09-11T13:47:37.417Z,25.40
2018-09-11T13:50:08.809Z,25.40
2018-09-11T13:52:38.404Z,25.60
2018-09-11T13:55:09.518Z,25.80
2018-09-11T13:57:39.691Z,25.70
2018-09-11T14:00:10.948Z,25.60
2018-09-11T14:02:41.683Z,25.50
2018-09-11T14:05:12.762Z,25.40
2018-09-11T14:07:43.301Z,25.50
2018-09-11T14:10:13.791Z,25.50
2018-09-11T14:12:43.707Z,25.50
2018-09-11T14:15:13.529Z,25.50
2018-09-11T14:17:43.292Z,25.70
2018-09-11T14:20:15.355Z,25.90
2018-09-11T14:22:46.766Z,26.10
2018-09-11T14:25:18.621Z,26.20
2018-09-11T14:27:49.231Z,26.30
2018-09-11T14:30:20.264Z,26.50
2018-09-11T14:32:50.061Z,26.40
2018-09-11T14:35:19.757Z,26.40
2018-09-11T14:37:50.560Z,26.50
2018-09-11T14:40:21.384Z,26.60
2018-09-11T14:42:50.963Z,26.80
2018-09-11T14:45:21.043Z,26.80
2018-09-11T14:47:53.239Z,26.80
2018-09-11T14:50:23.330Z,26.80
2018-09-11T14:52:53.776Z,26.80
2018-09-11T14:55:24.170Z,26.90
2018-09-11T14:57:55.655Z,26.90
2018-09-11T15:00:25.312Z,27.00
2018-09-11T15:02:54.865Z,27.20
2018-09-11T15:05:25.910Z,27.30
2018-09-11T15:07:57.135Z,27.30
2018-09-11T15:10:26.980Z,27.30
2018-09-11T15:13:02.713Z,27.20
2018-09-11T15:15:34.383Z,27.20
2018-09-11T15:18:06.114Z,27.10
2018-09-11T15:20:38.387Z,27.10
2018-09-11T15:23:08.892Z,27.10
2018-09-11T15:25:39.931Z,27.20
2018-09-11T15:28:10.542Z,27.20
2018-09-11T15:30:41.631Z,27.20
2018-09-11T15:33:11.313Z,27.30
2018-09-11T15:35:42.739Z,27.10
2018-09-11T15:38:13.210Z,27.00
2018-09-11T15:40:45.286Z,27.00
2018-09-11T15:43:15.887Z,26.90
2018-09-11T15:45:47.263Z,27.00
2018-09-11T15:48:17.900Z,26.90
2018-09-11T15:50:48.913Z,27.00
2018-09-11T15:53:18.897Z,26.90
2018-09-11T15:55:51.157Z,27.00
2018-09-11T15:58:22.941Z,26.90
2018-09-11T16:00:53.380Z,27.00
2018-09-11T16:03:25.545Z,27.10
2018-09-11T16:05:56.812Z,27.10
2018-09-11T16:08:28.243Z,27.20
2018-09-11T16:10:58.276Z,27.20
2018-09-11T16:13:30.172Z,27.20
2018-09-11T16:16:01.786Z,27.10
2018-09-11T16:18:32.858Z,27.20
2018-09-11T16:21:03.180Z,27.10
2018-09-11T16:23:33.031Z,27.10
2018-09-11T16:26:04.467Z,27.10
2018-09-11T16:28:36.073Z,27.10
2018-09-11T16:31:07.438Z,27.00
2018-09-11T16:33:42.970Z,27.10
2018-09-11T16:36:20.173Z,27.00
2018-09-11T16:38:56.156Z,27.10
2018-09-11T16:41:27.561Z,27.00
2018-09-11T16:43:57.810Z,26.80
2018-09-11T16:46:29.645Z,26.70
2018-09-11T16:48:59.817Z,26.50
2018-09-11T16:51:30.526Z,26.30
2018-09-11T16:54:01.509Z,26.30
2018-09-11T16:56:32.452Z,26.00
2018-09-11T16:59:02.600Z,25.90
2018-09-11T17:03:55.108Z,25.70
2018-09-11T17:06:26.705Z,25.30
2018-09-11T17:08:57.891Z,25.20
2018-09-11T17:11:28.923Z,25.00
2018-09-11T17:14:00.951Z,24.80
2018-09-11T17:16:31.615Z,24.70
2018-09-11T17:19:02.761Z,24.60
2018-09-11T17:21:35.905Z,24.60
2018-09-11T17:24:07.976Z,24.60
2018-09-11T17:26:39.555Z,24.50
2018-09-11T17:29:11.065Z,24.50
2018-09-11T17:31:43.373Z,24.30
2018-09-11T17:34:15.960Z,24.30
2018-09-11T17:36:48.503Z,24.20
2018-09-11T17:39:19.866Z,24.20
2018-09-11T17:41:52.112Z,24.20
2018-09-11T17:44:22.935Z,24.20
2018-09-11T17:46:54.228Z,24.20
2018-09-11T17:49:25.031Z,24.20
2018-09-11T17:51:57.095Z,24.20
2018-09-11T17:54:28.641Z,24.20
2018-09-11T17:57:00.002Z,24.20
2018-09-11T17:59:31.893Z,24.10
2018-09-11T18:02:03.200Z,24.10
2018-09-11T18:04:36.296Z,24.10
2018-09-11T18:07:06.670Z,24.10
2018-09-11T18:09:38.709Z,24.10
2018-09-11T18:12:10.348Z,24.10
2018-09-11T18:14:41.599Z,24.10
2018-09-11T18:17:12.572Z,24.10
2018-09-11T18:19:43.147Z,24.00
2018-09-11T18:22:14.163Z,24.00
2018-09-11T18:24:45.881Z,23.90
2018-09-11T18:27:17.197Z,23.90
2018-09-11T18:29:47.352Z,23.90
2018-09-11T18:32:20.011Z,23.90
2018-09-11T18:34:50.256Z,23.80
2018-09-11T18:37:22.082Z,23.80
2018-09-11T18:39:53.180Z,23.80
2018-09-11T18:42:26.003Z,23.70
2018-09-11T18:44:58.292Z,23.70
2018-09-11T18:47:29.390Z,23.60
2018-09-11T18:50:00.181Z,23.50
2018-09-11T18:52:30.129Z,23.50
2018-09-11T18:55:01.247Z,23.40
2018-09-11T18:57:32.859Z,23.40
2018-09-11T19:00:03.976Z,23.30
2018-09-11T19:02:35.721Z,23.30
2018-09-11T19:05:07.346Z,23.20
2018-09-11T19:07:38.582Z,23.10
2018-09-11T19:10:10.090Z,23.00
2018-09-11T19:12:41.471Z,23.00
2018-09-11T19:15:12.174Z,22.90
2018-09-11T19:17:43.718Z,22.90
2018-09-11T19:20:14.847Z,22.90
2018-09-11T19:22:46.413Z,22.80
2018-09-11T19:25:16.723Z,22.80
2018-09-11T19:27:48.312Z,22.70
2018-09-11T19:30:20.292Z,22.60
2018-09-11T19:35:40.465Z,22.60
2018-09-11T19:38:11.240Z,22.60
2018-09-11T19:40:42.745Z,22.60
2018-09-11T19:43:14.638Z,22.50
2018-09-11T19:45:46.917Z,22.50
2018-09-11T19:48:19.628Z,22.50
2018-09-11T19:50:58.407Z,22.40
2018-09-11T19:53:30.096Z,22.40
2018-09-11T19:56:00.514Z,22.40
2018-09-11T19:58:32.024Z,22.40
2018-09-11T20:01:04.554Z,22.40
2018-09-11T20:03:36.138Z,22.30
2018-09-11T20:06:08.902Z,22.20
2018-09-11T20:08:39.322Z,22.10
2018-09-11T20:11:14.318Z,21.90
2018-09-11T20:13:45.356Z,21.80
2018-09-11T20:16:15.651Z,21.70
2018-09-11T20:18:46.822Z,21.60
2018-09-11T20:21:17.831Z,21.60
2018-09-11T20:23:48.901Z,21.40
2018-09-11T20:26:20.496Z,21.30
2018-09-11T20:28:54.898Z,21.20
2018-09-11T20:31:25.866Z,21.10
2018-09-11T20:33:57.817Z,21.10
2018-09-11T20:36:28.790Z,21.00
2018-09-11T20:39:00.603Z,21.00
2018-09-11T20:41:31.533Z,20.90
2018-09-11T20:44:02.773Z,20.90
2018-09-11T20:46:33.401Z,20.80
2018-09-11T20:49:04.780Z,20.80
2018-09-11T20:51:36.257Z,20.70
2018-09-11T20:54:08.530Z,20.70
2018-09-11T20:56:40.348Z,20.60
2018-09-11T20:59:11.932Z,20.60
2018-09-11T21:01:43.423Z,20.50
2018-09-11T21:04:14.706Z,20.40
2018-09-11T21:06:46.401Z,20.40
2018-09-11T21:09:17.434Z,20.30
2018-09-11T21:11:49.219Z,20.30
2018-09-11T21:14:20.327Z,20.30
2018-09-11T21:16:51.623Z,20.20
2018-09-11T21:19:22.406Z,20.20
2018-09-11T21:21:57.495Z,20.20
2018-09-11T21:24:29.603Z,20.20
2018-09-11T21:27:01.057Z,20.20
2018-09-11T21:29:32.991Z,20.10
2018-09-11T21:32:12.926Z,20.00
2018-09-11T21:34:44.541Z,20.00
2018-09-11T21:37:43.217Z,19.90
2018-09-11T21:40:14.141Z,19.90
2018-09-11T21:42:45.116Z,19.90
2018-09-11T21:45:16.369Z,19.80
2018-09-11T21:47:48.164Z,19.80
2018-09-11T21:50:20.749Z,19.80
2018-09-11T21:52:52.730Z,19.80
2018-09-11T21:55:22.746Z,19.80
2018-09-11T21:57:54.197Z,19.80
2018-09-11T22:00:25.798Z,19.70
2018-09-11T22:02:58.496Z,19.70
2018-09-11T22:05:31.530Z,19.70
2018-09-11T22:08:02.093Z,19.60
2018-09-11T22:10:33.473Z,19.60
2018-09-11T22:13:04.061Z,19.60
2018-09-11T22:15:35.605Z,19.50
2018-09-11T22:18:06.604Z,19.50
2018-09-11T22:20:38.076Z,19.40
2018-09-11T22:23:08.491Z,19.40
2018-09-11T22:25:40.870Z,19.40
2018-09-11T22:28:12.862Z,19.30
2018-09-11T22:30:43.953Z,19.30
2018-09-11T22:33:15.734Z,19.30
2018-09-11T22:35:46.481Z,19.30
2018-09-11T22:38:17.522Z,19.20
2018-09-11T22:40:54.076Z,19.10
2018-09-11T22:43:25.066Z,19.00
2018-09-11T22:45:56.263Z,18.90
2018-09-11T22:48:27.824Z,18.90
2018-09-11T22:50:58.867Z,18.80
2018-09-11T22:53:29.438Z,18.70
2018-09-11T22:56:00.688Z,18.70
2018-09-11T22:58:31.361Z,18.70
2018-09-11T23:01:03.329Z,18.60
2018-09-11T23:03:35.547Z,18.60
2018-09-11T23:06:06.493Z,18.60
2018-09-11T23:08:38.750Z,18.50
2018-09-11T23:11:09.904Z,18.50
2018-09-11T23:13:41.066Z,18.40
2018-09-11T23:16:11.338Z,18.40
2018-09-11T23:18:42.504Z,18.40
2018-09-11T23:21:12.891Z,18.40
2018-09-11T23:23:43.235Z,18.30
2018-09-11T23:26:14.305Z,18.30
2018-09-11T23:28:46.297Z,18.20
2018-09-11T23:31:16.742Z,18.20
2018-09-11T23:33:48.404Z,18.10
2018-09-11T23:36:19.565Z,18.10
2018-09-11T23:38:51.621Z,18.00
2018-09-11T23:41:22.379Z,17.90
2018-09-11T23:43:53.324Z,17.80
2018-09-11T23:46:24.443Z,17.70
2018-09-11T23:48:55.995Z,17.60
2018-09-11T23:51:27.043Z,17.60
2018-09-11T23:53:57.397Z,17.60
2018-09-11T23:56:28.623Z,17.50
2018-09-11T23:58:59.420Z,17.60
